createdAt,value
2022-08-31T00:01:05.253Z,4.85
2022-08-31T00:03:54.276Z,4.70
2022-08-31T00:06:24.008Z,4.50
2022-08-31T00:08:56.384Z,4.78
2022-08-31T00:11:31.096Z,4.97
2022-08-31T00:14:05.920Z,4.10
2022-08-31T00:16:38.589Z,4.30
2022-08-31T00:19:11.799Z,3.90
2022-08-31T00:21:44.685Z,3.98
2022-08-31T00:24:14.611Z,4.37
2022-08-31T00:26:46.480Z,4.03
2022-08-31T00:29:17.140Z,4.35
2022-08-31T00:31:48.736Z,4.30
2022-08-31T00:34:19.441Z,3.90
2022-08-31T00:36:49.492Z,4.65
2022-08-31T00:39:19.569Z,4.12
2022-08-31T00:41:50.444Z,4.28
2022-08-31T00:44:20.142Z,4.47
2022-08-31T00:46:49.983Z,4.03
2022-08-31T00:49:26.732Z,3.90
2022-08-31T00:54:55.400Z,3.95
2022-08-31T00:57:30.085Z,3.75
2022-08-31T01:00:01.030Z,3.90
2022-08-31T01:02:32.194Z,3.90
2022-08-31T01:05:02.529Z,4.15
2022-08-31T01:07:33.800Z,3.92
2022-08-31T01:10:05.861Z,4.05
2022-08-31T01:12:37.147Z,3.40
2022-08-31T01:15:08.232Z,3.70
2022-08-31T01:17:38.618Z,4.05
2022-08-31T01:20:19.481Z,3.70
2022-08-31T01:23:11.932Z,3.60
2022-08-31T01:25:43.890Z,3.65
2022-08-31T01:28:14.691Z,3.95
2022-08-31T01:31:05.069Z,4.15
2022-08-31T01:33:38.032Z,4.20
2022-08-31T01:36:11.160Z,4.12
2022-08-31T01:38:40.827Z,3.80
2022-08-31T01:41:12.992Z,4.03
2022-08-31T01:43:45.036Z,4.05
2022-08-31T01:46:15.917Z,3.70
2022-08-31T01:48:46.575Z,4.03
2022-08-31T01:51:18.045Z,3.40
2022-08-31T01:53:48.828Z,3.60
2022-08-31T01:56:23.686Z,3.55
2022-08-31T01:58:53.227Z,3.50
2022-08-31T02:01:45.736Z,3.42
2022-08-31T02:04:18.344Z,3.65
2022-08-31T02:06:51.749Z,3.80
2022-08-31T02:09:22.802Z,3.50
2022-08-31T02:11:53.505Z,3.90
2022-08-31T02:14:23.338Z,4.42
2022-08-31T02:16:53.966Z,4.10
2022-08-31T02:19:24.819Z,4.40
2022-08-31T02:21:56.521Z,4.60
2022-08-31T02:24:26.769Z,4.53
2022-08-31T02:26:59.730Z,4.33
2022-08-31T02:29:30.317Z,4.60
2022-08-31T02:32:02.428Z,4.37
2022-08-31T02:34:33.442Z,4.28
2022-08-31T02:37:04.656Z,4.58
2022-08-31T02:39:34.878Z,4.30
2022-08-31T02:42:06.220Z,4.47
2022-08-31T02:44:39.913Z,5.15
2022-08-31T02:47:10.150Z,4.53
2022-08-31T02:49:44.369Z,4.72
2022-08-31T02:52:16.001Z,5.22
2022-08-31T02:54:47.038Z,5.22
2022-08-31T02:57:18.808Z,4.97
2022-08-31T02:59:50.342Z,4.70
2022-08-31T03:02:22.944Z,4.90
2022-08-31T03:04:55.244Z,4.75
2022-08-31T03:07:27.800Z,4.70
2022-08-31T03:10:01.788Z,4.92
2022-08-31T03:12:34.019Z,5.17
2022-08-31T03:15:07.761Z,5.37
2022-08-31T03:17:37.633Z,5.10
2022-08-31T03:20:11.071Z,5.87
2022-08-31T03:22:45.643Z,5.10
2022-08-31T03:25:17.257Z,4.97
2022-08-31T03:27:47.442Z,5.15
2022-08-31T03:30:19.505Z,4.97
2022-08-31T03:32:55.065Z,4.85
2022-08-31T03:35:29.554Z,6.25
2022-08-31T03:38:03.039Z,5.35
2022-08-31T03:40:34.301Z,6.03
2022-08-31T03:43:04.887Z,6.28
2022-08-31T03:45:35.412Z,5.22
2022-08-31T03:48:12.009Z,5.25
2022-08-31T03:50:39.322Z,5.60
2022-08-31T03:53:12.937Z,5.33
2022-08-31T03:55:43.400Z,6.00
2022-08-31T03:58:13.919Z,5.65
2022-08-31T04:00:45.654Z,6.00
2022-08-31T04:03:17.451Z,6.05
2022-08-31T04:06:10.145Z,6.00
2022-08-31T04:08:58.118Z,5.83
2022-08-31T04:11:44.752Z,5.05
2022-08-31T04:14:26.702Z,6.00
2022-08-31T04:17:17.384Z,5.12
2022-08-31T04:19:49.442Z,5.85
2022-08-31T04:22:22.119Z,5.30
2022-08-31T04:24:56.024Z,5.28
2022-08-31T04:27:26.775Z,5.37
2022-08-31T04:29:57.175Z,4.80
2022-08-31T04:32:27.326Z,4.17
2022-08-31T04:34:59.526Z,5.25
2022-08-31T04:37:29.444Z,4.78
2022-08-31T04:40:03.654Z,5.10
2022-08-31T04:42:38.089Z,9.40
2022-08-31T04:45:09.341Z,5.50
2022-08-31T04:47:41.983Z,4.00
2022-08-31T04:50:13.543Z,3.67
2022-08-31T04:53:03.068Z,4.08
2022-08-31T04:55:20.380Z,4.35
2022-08-31T04:57:51.242Z,3.70
2022-08-31T05:00:22.405Z,3.72
2022-08-31T05:03:10.287Z,4.37
2022-08-31T05:05:41.195Z,4.60
2022-08-31T05:08:12.501Z,4.03
2022-08-31T05:10:42.883Z,4.42
2022-08-31T05:13:13.654Z,4.17
2022-08-31T05:15:43.892Z,4.97
2022-08-31T05:18:16.898Z,3.98
2022-08-31T05:20:49.492Z,3.92
2022-08-31T05:23:21.025Z,4.10
2022-08-31T05:25:50.980Z,4.30
2022-08-31T05:28:23.193Z,4.65
2022-08-31T05:30:53.355Z,3.72
2022-08-31T05:33:26.058Z,4.53
2022-08-31T05:35:56.851Z,4.03
2022-08-31T05:38:28.119Z,3.80
2022-08-31T05:41:00.793Z,3.90
2022-08-31T05:43:31.388Z,4.33
2022-08-31T05:46:05.646Z,4.22
2022-08-31T05:48:36.204Z,4.03
2022-08-31T05:51:08.504Z,3.80
2022-08-31T05:53:40.711Z,3.77
2022-08-31T05:56:23.382Z,7.25
2022-08-31T05:58:53.904Z,4.50
2022-08-31T06:01:34.290Z,4.00
2022-08-31T06:04:08.147Z,3.22
2022-08-31T06:06:38.968Z,3.45
2022-08-31T06:09:11.422Z,3.62
2022-08-31T06:11:42.027Z,3.70
2022-08-31T06:14:13.370Z,3.65
2022-08-31T06:16:45.092Z,3.17
2022-08-31T06:19:17.436Z,3.42
2022-08-31T06:21:51.500Z,2.90
2022-08-31T06:24:30.773Z,2.80
2022-08-31T06:27:01.517Z,3.15
2022-08-31T06:29:33.617Z,2.92
2022-08-31T06:32:08.237Z,2.67
2022-08-31T06:34:42.525Z,3.22
2022-08-31T06:37:21.261Z,2.80
2022-08-31T06:39:54.391Z,2.98
2022-08-31T06:42:29.528Z,3.90
2022-08-31T06:45:07.590Z,2.83
2022-08-31T06:47:40.122Z,2.70
2022-08-31T06:50:13.655Z,2.77
2022-08-31T06:52:45.250Z,4.03
2022-08-31T06:55:35.353Z,2.55
2022-08-31T06:58:25.071Z,3.08
2022-08-31T07:01:13.760Z,2.90
2022-08-31T07:03:50.371Z,3.05
2022-08-31T07:06:22.443Z,3.35
2022-08-31T07:08:56.631Z,3.20
2022-08-31T07:11:32.912Z,3.30
2022-08-31T07:14:04.574Z,3.60
2022-08-31T07:16:36.372Z,3.12
2022-08-31T07:19:06.646Z,3.30
2022-08-31T07:21:46.190Z,2.65
2022-08-31T07:24:20.869Z,2.83
2022-08-31T07:26:57.682Z,2.47
2022-08-31T07:29:34.423Z,2.50
2022-08-31T07:32:03.869Z,2.67
2022-08-31T07:34:33.736Z,2.50
2022-08-31T07:37:18.296Z,2.20
2022-08-31T07:40:08.259Z,2.92
2022-08-31T07:42:44.607Z,2.15
2022-08-31T07:45:27.951Z,2.30
2022-08-31T07:48:00.405Z,2.47
2022-08-31T07:50:33.008Z,1.70
2022-08-31T07:53:07.456Z,1.90
2022-08-31T07:55:47.991Z,2.60
2022-08-31T07:58:35.619Z,2.25
2022-08-31T08:01:06.502Z,1.85
2022-08-31T08:03:36.174Z,1.95
2022-08-31T08:06:25.800Z,2.00
2022-08-31T08:09:24.028Z,1.92
2022-08-31T08:11:46.813Z,1.92
2022-08-31T08:14:38.560Z,2.10
2022-08-31T08:17:25.545Z,2.02
2022-08-31T08:19:56.391Z,1.87
2022-08-31T08:22:50.968Z,1.35
2022-08-31T08:25:13.216Z,1.65
2022-08-31T08:27:51.895Z,1.75
2022-08-31T08:30:25.603Z,2.02
2022-08-31T08:32:55.046Z,1.75
2022-08-31T08:35:26.858Z,1.62
2022-08-31T08:37:59.001Z,1.62
2022-08-31T08:40:43.970Z,1.80
2022-08-31T08:43:16.202Z,1.90
2022-08-31T08:45:49.632Z,1.80
2022-08-31T08:48:22.336Z,1.52
2022-08-31T08:50:53.926Z,2.15
2022-08-31T08:53:28.756Z,1.60
2022-08-31T08:56:17.254Z,1.40
2022-08-31T08:58:35.657Z,1.55
2022-08-31T09:01:07.754Z,1.92
2022-08-31T09:03:46.518Z,1.42
2022-08-31T09:06:48.307Z,1.60
2022-08-31T09:09:35.097Z,3.50
2022-08-31T09:15:14.793Z,1.60
2022-08-31T09:18:05.556Z,1.72
2022-08-31T09:20:35.324Z,1.77
2022-08-31T09:23:06.907Z,1.90
2022-08-31T09:25:50.162Z,1.77
2022-08-31T09:28:44.382Z,1.40
2022-08-31T09:31:38.073Z,1.40
2022-08-31T09:34:12.374Z,1.80
2022-08-31T09:36:42.687Z,1.90
2022-08-31T09:39:21.602Z,1.45
2022-08-31T09:41:50.868Z,1.95
2022-08-31T09:44:34.038Z,2.33
2022-08-31T09:47:06.860Z,2.10
2022-08-31T09:49:38.344Z,3.55
2022-08-31T09:52:24.027Z,1.40
2022-08-31T09:55:17.882Z,1.92
2022-08-31T09:58:07.848Z,1.40
2022-08-31T10:00:42.078Z,1.57
2022-08-31T10:03:25.868Z,1.92
2022-08-31T10:05:57.575Z,1.85
2022-08-31T10:08:50.263Z,1.70
2022-08-31T10:11:23.453Z,1.90
2022-08-31T10:14:04.873Z,1.62
2022-08-31T10:16:43.211Z,1.70
2022-08-31T10:19:28.429Z,1.70
2022-08-31T10:22:05.003Z,1.87
2022-08-31T10:24:48.815Z,1.70
2022-08-31T10:27:28.487Z,2.00
2022-08-31T10:30:06.861Z,1.55
2022-08-31T10:32:45.578Z,1.70
2022-08-31T10:35:55.920Z,2.67
2022-08-31T10:38:37.416Z,2.20
2022-08-31T10:41:22.013Z,2.52
2022-08-31T10:44:19.894Z,2.10
2022-08-31T10:46:53.980Z,2.00
2022-08-31T10:49:26.132Z,2.40
2022-08-31T10:52:09.443Z,2.60
2022-08-31T10:54:48.343Z,2.10
2022-08-31T10:57:43.451Z,2.00
2022-08-31T11:00:42.853Z,2.75
2022-08-31T11:03:27.848Z,2.22
2022-08-31T11:06:19.792Z,1.87
2022-08-31T11:08:58.865Z,2.17
2022-08-31T11:11:46.193Z,1.80
2022-08-31T11:14:53.612Z,2.10
2022-08-31T11:17:52.058Z,3.35
2022-08-31T11:21:06.521Z,1.95
2022-08-31T11:23:56.226Z,2.12
2022-08-31T11:26:51.401Z,1.92
2022-08-31T11:29:46.893Z,1.92
2022-08-31T11:32:39.767Z,2.50
2022-08-31T11:35:10.986Z,2.00
2022-08-31T11:37:52.479Z,2.00
2022-08-31T11:40:46.690Z,1.62
2022-08-31T11:43:44.090Z,1.75
2022-08-31T11:46:28.503Z,1.60
2022-08-31T11:48:59.589Z,1.62
2022-08-31T11:51:45.867Z,1.60
2022-08-31T11:54:26.608Z,1.70
2022-08-31T11:56:57.257Z,2.90
2022-08-31T11:59:36.600Z,1.45
2022-08-31T12:02:26.846Z,1.25
2022-08-31T12:04:58.597Z,1.42
2022-08-31T12:07:42.428Z,1.87
2022-08-31T12:10:34.348Z,1.90
2022-08-31T12:13:31.048Z,2.00
2022-08-31T12:16:06.637Z,1.70
2022-08-31T12:19:44.761Z,1.47
2022-08-31T12:23:10.488Z,1.60
2022-08-31T12:26:20.046Z,1.57
2022-08-31T12:29:28.186Z,1.50
2022-08-31T12:32:35.708Z,1.30
2022-08-31T12:35:24.864Z,1.40
2022-08-31T12:38:10.200Z,1.65
2022-08-31T12:40:47.326Z,1.60
2022-08-31T12:43:40.588Z,1.60
2022-08-31T12:46:59.601Z,1.50
2022-08-31T12:49:47.088Z,1.60
2022-08-31T12:52:37.159Z,1.32
2022-08-31T12:55:38.518Z,1.40
2022-08-31T12:58:41.244Z,1.72
2022-08-31T13:01:17.291Z,1.40
2022-08-31T13:03:54.246Z,1.45
2022-08-31T13:09:04.103Z,1.40
2022-08-31T13:11:42.102Z,1.35
2022-08-31T13:14:27.362Z,2.60
2022-08-31T13:17:16.200Z,1.60
2022-08-31T13:19:57.319Z,1.90
2022-08-31T13:22:33.195Z,1.42
2022-08-31T13:25:21.835Z,1.77
2022-08-31T13:27:52.557Z,1.40
2022-08-31T13:30:25.502Z,1.80
2022-08-31T13:32:55.108Z,1.87
2022-08-31T13:35:28.251Z,1.50
2022-08-31T13:38:05.946Z,1.50
2022-08-31T13:40:39.261Z,1.90
2022-08-31T13:43:11.250Z,1.72
2022-08-31T13:45:52.519Z,1.75
2022-08-31T13:48:34.775Z,1.25
2022-08-31T13:51:20.161Z,1.92
2022-08-31T13:54:04.640Z,1.60
2022-08-31T13:56:59.176Z,1.87
2022-08-31T13:59:33.492Z,1.85
2022-08-31T14:02:19.607Z,1.50
2022-08-31T14:04:57.815Z,1.90
2022-08-31T14:07:44.014Z,1.50
2022-08-31T14:10:19.173Z,1.55
2022-08-31T14:12:57.105Z,1.80
2022-08-31T14:15:56.172Z,1.75
2022-08-31T14:18:29.959Z,1.67
2022-08-31T14:21:20.934Z,1.12
2022-08-31T14:24:03.976Z,1.57
2022-08-31T14:26:37.694Z,1.80
2022-08-31T14:29:12.176Z,1.42
2022-08-31T14:31:52.730Z,1.57
2022-08-31T14:34:32.655Z,2.33
2022-08-31T14:37:07.518Z,1.72
2022-08-31T14:39:47.265Z,1.70
2022-08-31T14:42:36.969Z,1.32
2022-08-31T14:45:18.266Z,1.60
2022-08-31T14:47:52.117Z,1.57
2022-08-31T14:50:25.247Z,1.55
2022-08-31T14:52:57.526Z,1.90
2022-08-31T14:55:31.118Z,1.67
2022-08-31T14:58:07.079Z,1.20
2022-08-31T15:00:41.650Z,1.60
2022-08-31T15:03:17.159Z,1.40
2022-08-31T15:05:48.811Z,1.20
2022-08-31T15:08:20.153Z,1.20
2022-08-31T15:10:54.401Z,1.00
2022-08-31T15:13:26.811Z,1.77
2022-08-31T15:15:59.802Z,1.20
2022-08-31T15:18:33.410Z,1.60
2022-08-31T15:21:05.434Z,1.25
2022-08-31T15:23:36.939Z,1.20
2022-08-31T15:26:11.021Z,1.25
2022-08-31T15:28:42.871Z,1.50
2022-08-31T15:31:24.849Z,1.30
2022-08-31T15:33:57.630Z,1.40
2022-08-31T15:36:28.136Z,1.40
2022-08-31T15:38:59.874Z,1.30
2022-08-31T15:41:37.641Z,1.20
2022-08-31T15:44:11.940Z,1.40
2022-08-31T15:47:02.173Z,1.20
2022-08-31T15:49:33.652Z,1.50
2022-08-31T15:52:06.836Z,1.35
2022-08-31T15:54:38.846Z,1.50
2022-08-31T15:57:08.254Z,1.70
2022-08-31T15:59:42.807Z,1.87
2022-08-31T16:02:13.729Z,1.50
2022-08-31T16:04:43.204Z,1.80
2022-08-31T16:07:13.361Z,1.32
2022-08-31T16:09:47.322Z,1.40
2022-08-31T16:12:18.441Z,1.50
2022-08-31T16:14:51.270Z,1.70
2022-08-31T16:17:21.131Z,1.20
2022-08-31T16:19:51.258Z,1.10
2022-08-31T16:22:22.329Z,1.00
2022-08-31T16:24:54.664Z,1.02
2022-08-31T16:27:24.650Z,1.20
2022-08-31T16:29:54.127Z,1.40
2022-08-31T16:32:25.288Z,1.37
2022-08-31T16:34:54.723Z,1.25
2022-08-31T16:37:24.929Z,1.62
2022-08-31T16:39:55.224Z,2.47
2022-08-31T16:42:25.210Z,1.92
2022-08-31T16:44:59.735Z,1.45
2022-08-31T16:47:27.136Z,1.30
2022-08-31T16:49:59.220Z,1.62
2022-08-31T16:52:30.780Z,1.57
2022-08-31T16:54:59.891Z,1.90
2022-08-31T16:57:30.039Z,1.50
2022-08-31T17:00:00.684Z,1.30
2022-08-31T17:02:35.146Z,1.22
2022-08-31T17:05:05.758Z,1.10
2022-08-31T17:07:36.512Z,1.20
2022-08-31T17:10:07.461Z,1.60
2022-08-31T17:12:40.959Z,1.40
2022-08-31T17:15:13.263Z,1.10
2022-08-31T17:17:44.981Z,1.22
2022-08-31T17:20:16.060Z,1.27
2022-08-31T17:22:48.415Z,1.20
2022-08-31T17:25:18.562Z,1.15
2022-08-31T17:27:51.199Z,1.30
2022-08-31T17:30:23.244Z,1.20
2022-08-31T17:32:54.357Z,1.20
2022-08-31T17:35:25.897Z,1.30
2022-08-31T17:37:56.226Z,1.20
2022-08-31T17:40:26.645Z,1.30
2022-08-31T17:42:59.951Z,1.45
2022-08-31T17:45:31.885Z,1.27
2022-08-31T17:48:01.530Z,1.40
2022-08-31T17:50:32.486Z,1.60
2022-08-31T17:53:03.622Z,1.35
2022-08-31T17:55:34.502Z,1.70
2022-08-31T17:58:06.910Z,1.90
2022-08-31T18:00:36.908Z,2.70
2022-08-31T18:03:07.478Z,3.05
2022-08-31T18:05:41.907Z,2.80
2022-08-31T18:08:10.174Z,2.72
2022-08-31T18:10:41.433Z,3.33
2022-08-31T18:13:11.565Z,2.50
2022-08-31T18:15:41.520Z,3.40
2022-08-31T18:18:12.011Z,2.92
2022-08-31T18:20:41.684Z,3.17
2022-08-31T18:23:11.701Z,2.50
2022-08-31T18:25:42.953Z,2.80
2022-08-31T18:28:12.974Z,2.90
2022-08-31T18:30:42.642Z,3.00
2022-08-31T18:33:15.111Z,4.17
2022-08-31T18:35:50.514Z,4.35
2022-08-31T18:38:22.041Z,6.55
2022-08-31T18:41:10.323Z,6.67
2022-08-31T18:43:59.427Z,7.22
2022-08-31T18:46:28.727Z,7.00
2022-08-31T18:49:11.895Z,7.30
2022-08-31T18:51:31.050Z,7.15
2022-08-31T18:54:00.744Z,6.47
2022-08-31T18:56:29.847Z,6.53
2022-08-31T18:59:00.099Z,6.12
2022-08-31T19:01:33.482Z,6.70
2022-08-31T19:04:03.896Z,5.75
2022-08-31T19:06:34.105Z,5.20
2022-08-31T19:09:04.086Z,5.72
2022-08-31T19:11:40.861Z,6.05
2022-08-31T19:14:10.050Z,5.75
2022-08-31T19:16:39.687Z,5.92
2022-08-31T19:19:10.176Z,6.17
2022-08-31T19:21:39.431Z,5.92
2022-08-31T19:24:13.436Z,6.30
2022-08-31T19:26:51.743Z,6.90
2022-08-31T19:29:26.386Z,6.25
2022-08-31T19:31:57.017Z,6.78
2022-08-31T19:34:29.422Z,6.60
2022-08-31T19:36:59.940Z,6.83
2022-08-31T19:39:31.496Z,6.53
2022-08-31T19:42:07.698Z,6.80
2022-08-31T19:44:54.936Z,6.50
2022-08-31T19:47:24.434Z,6.78
2022-08-31T19:49:43.267Z,6.20
2022-08-31T19:52:12.433Z,5.97
2022-08-31T19:54:41.914Z,5.80
2022-08-31T19:57:13.649Z,5.80
2022-08-31T19:59:44.775Z,6.28
2022-08-31T20:02:14.099Z,6.20
2022-08-31T20:04:45.578Z,5.78
2022-08-31T20:07:18.770Z,5.92
2022-08-31T20:09:50.100Z,5.95
2022-08-31T20:12:19.224Z,5.80
2022-08-31T20:14:49.354Z,5.00
2022-08-31T20:17:20.084Z,5.55
2022-08-31T20:19:49.286Z,5.00
2022-08-31T20:22:28.121Z,5.30
2022-08-31T20:24:55.369Z,4.28
2022-08-31T20:27:24.429Z,4.78
2022-08-31T20:29:54.529Z,4.55
2022-08-31T20:32:25.439Z,4.97
2022-08-31T20:34:59.710Z,4.95
2022-08-31T20:37:29.516Z,4.97
2022-08-31T20:39:59.650Z,4.40
2022-08-31T20:42:29.558Z,4.75
2022-08-31T20:44:59.137Z,5.08
2022-08-31T20:47:47.718Z,4.67
2022-08-31T20:50:17.329Z,4.80
2022-08-31T20:52:46.575Z,4.80
2022-08-31T20:55:16.675Z,4.80
2022-08-31T20:57:46.697Z,4.90
2022-08-31T21:00:18.596Z,5.08
2022-08-31T21:02:49.871Z,7.08
2022-08-31T21:05:38.342Z,6.80
2022-08-31T21:07:52.369Z,13.45
2022-08-31T21:10:36.230Z,14.93
2022-08-31T21:13:00.190Z,12.50
2022-08-31T21:15:30.264Z,12.20
2022-08-31T21:18:02.259Z,7.50
2022-08-31T21:20:33.536Z,6.12
2022-08-31T21:23:02.758Z,5.00
2022-08-31T21:25:33.442Z,4.55
2022-08-31T21:28:03.964Z,4.90
2022-08-31T21:30:34.234Z,4.08
2022-08-31T21:33:05.248Z,4.55
2022-08-31T21:35:34.874Z,4.42
2022-08-31T21:38:06.827Z,3.22
2022-08-31T21:40:36.773Z,4.37
2022-08-31T21:43:07.314Z,3.35
2022-08-31T21:45:37.184Z,2.55
2022-08-31T21:48:07.463Z,2.40
2022-08-31T21:50:37.929Z,2.12
2022-08-31T21:53:08.399Z,2.45
2022-08-31T21:55:38.762Z,1.60
2022-08-31T21:58:07.884Z,1.55
2022-08-31T22:00:38.736Z,1.75
2022-08-31T22:03:08.997Z,2.10
2022-08-31T22:05:44.784Z,1.42
2022-08-31T22:08:14.907Z,2.33
2022-08-31T22:10:44.605Z,1.57
2022-08-31T22:13:16.901Z,1.25
2022-08-31T22:15:46.823Z,1.40
2022-08-31T22:18:59.109Z,1.87
2022-08-31T22:20:49.689Z,1.52
2022-08-31T22:23:19.564Z,1.57
2022-08-31T22:25:49.029Z,1.20
2022-08-31T22:28:20.021Z,1.10
2022-08-31T22:30:50.661Z,1.10
2022-08-31T22:33:20.985Z,1.42
2022-08-31T22:35:51.363Z,1.20
2022-08-31T22:38:21.749Z,1.27
2022-08-31T22:40:53.191Z,1.22
2022-08-31T22:43:22.623Z,1.10
2022-08-31T22:45:51.784Z,1.20
2022-08-31T22:48:22.308Z,1.20
2022-08-31T22:50:51.473Z,1.10
2022-08-31T22:53:21.664Z,1.20
2022-08-31T22:55:52.853Z,1.17
2022-08-31T22:58:22.190Z,1.25
2022-08-31T23:00:51.698Z,1.07
2022-08-31T23:03:22.192Z,1.10
2022-08-31T23:05:53.781Z,1.10
2022-08-31T23:08:23.772Z,1.17
2022-08-31T23:10:54.207Z,1.10
2022-08-31T23:13:25.177Z,0.90
2022-08-31T23:15:54.269Z,0.85
2022-08-31T23:18:23.561Z,1.10
2022-08-31T23:20:54.641Z,0.90
2022-08-31T23:23:24.238Z,1.40
2022-08-31T23:25:56.619Z,0.90
2022-08-31T23:28:26.098Z,1.07
2022-08-31T23:30:55.418Z,1.10
2022-08-31T23:33:26.548Z,1.20
2022-08-31T23:35:56.314Z,1.00
2022-08-31T23:38:27.345Z,1.20
2022-08-31T23:40:57.876Z,0.80
2022-08-31T23:43:28.677Z,1.05
2022-08-31T23:46:01.837Z,1.00
2022-08-31T23:48:31.352Z,0.90
2022-08-31T23:51:02.066Z,0.90
2022-08-31T23:53:33.086Z,1.00
2022-08-31T23:56:10.747Z,0.80
2022-08-31T23:58:39.918Z,0.90
